• Join FlightAware (Why Join?)
  • Login
  • US Flag 
04:02AM EST


 

Airport Tracker/Info


-or-


 

Live Flight TrackerFlight Track Log ✈ CSZ9041 ✈ 21-Aug-2014 ✈ ZSQZ / JJN - VHHH / HKG

Flight Track Log - Related Links

Times and Time Zones

All times are in EDT time to prevent confusion due to time zone crossing. See the CSZ9041 flight status page for this flight to view local times or setup timezone preferences in your user account.

Time Position Orientation Groundspeed Altitude Reporting Facility
EDT Latitude Longitude Course Direction KTS MPH feet Rate Location/Type
09:24PM 24.5586 118.1230 241° Southwest  Level Estimated
09:25PM 24.5109 118.0299 241° Southwest  Level Estimated
09:26PM 24.4631 117.9369 241° Southwest  Level Estimated
09:27PM 24.4153 117.8439 241° Southwest  Level Estimated
09:28PM 24.3674 117.7510 241° Southwest  Level Estimated
09:29PM 24.3194 117.6581 240° Southwest  Level Estimated
09:30PM 24.2714 117.5653 240° Southwest  Level Estimated
09:31PM 24.2233 117.4726 240° Southwest  Level Estimated
09:32PM 24.1752 117.3800 240° Southwest  Level Estimated
09:33PM 24.1270 117.2875 240° Southwest  Level Estimated
09:34PM 24.0788 117.1950 240° Southwest  Level Estimated
09:35PM 24.0305 117.1025 240° Southwest  Level Estimated
09:36PM 23.9822 117.0102 240° Southwest  Level Estimated
09:37PM 23.9338 116.9179 240° Southwest  Level Estimated
09:38PM 23.8853 116.8257 240° Southwest  Level Estimated
09:39PM 23.8368 116.7335 240° Southwest  Level Estimated
09:40PM 23.7882 116.6415 240° Southwest  Level Estimated
09:41PM 23.7396 116.5495 240° Southwest  Level Estimated
09:42PM 23.6910 116.4575 240° Southwest  Level Estimated
09:43PM 23.6422 116.3656 240° Southwest  Level Estimated
09:44PM 23.5934 116.2738 240° Southwest  Level Estimated
09:45PM 23.5446 116.1821 240° Southwest  Level Estimated
09:46PM 23.4957 116.0904 240° Southwest  Level Estimated
09:47PM 23.4468 115.9988 240° Southwest  Level Estimated
09:48PM 23.3978 115.9073 240° Southwest  Level Estimated
09:49PM 23.3487 115.8158 240° Southwest  Level Estimated
09:50PM 23.2996 115.7245 240° Southwest  Level Estimated
09:51PM 23.2505 115.6331 240° Southwest  Level Estimated
09:52PM 23.2013 115.5419 240° Southwest  Level Estimated
09:53PM 23.1520 115.4507 240° Southwest  Level Estimated
09:54PM 23.1027 115.3596 240° Southwest  Level Estimated
09:55PM 23.0533 115.2685 240° Southwest  Level Estimated
09:56PM 23.0039 115.1775 239° Southwest  Level Estimated
09:57PM 22.9544 115.0866 239° Southwest  Level Estimated
09:58PM 22.9049 114.9957 239° Southwest  Level Estimated
09:59PM 22.8553 114.9049 239° Southwest  Level Estimated
10:00PM 22.8057 114.8142 239° Southwest  Level Estimated
10:01PM 22.7560 114.7235 239° Southwest  Level Estimated
10:02PM 22.7063 114.6329 239° Southwest  Level Estimated
10:03PM 22.6565 114.5424 239° Southwest  Level Estimated
10:04PM 22.6067 114.4520 239° Southwest  Level Estimated
10:05PM 22.5568 114.3616 239° Southwest  Level Estimated
10:06PM 22.5069 114.2712 239° Southwest  Level Estimated
10:07PM 22.4569 114.1810 239° Southwest  Level Estimated
10:07PM 22.2975 114.9215 289° West 380 437 18,000  Level FlightAware ADS-B
10:08PM 22.4069 114.0908 239° Southwest  Level Estimated
10:08PM 22.3198 114.8542 289° West 376 433 18,000  Level FlightAware ADS-B
10:08PM 22.3404 114.7930 290° West 361 415 18,000  Level FlightAware ADS-B
10:09PM 22.3354 114.6918 241° Southwest 298 343 18,000  Level FlightAware ADS-B
10:10PM 22.3108 114.6368 245° Southwest 299 344 18,000 -540 Level FlightAware ADS-B
10:11PM 22.2891 114.5869 245° Southwest 296 341 17,300 -1,200 Descending FlightAware ADS-B
10:12PM 22.2537 114.4475 268° West 282 325 15,200 -1,320 Descending FlightAware ADS-B
10:13PM 22.2515 114.3899 268° West 280 322 14,300 -1,440 Descending FlightAware ADS-B
10:14PM 22.2495 114.3367 268° West 281 323 13,300 -1,380 Descending FlightAware ADS-B
10:14PM 22.2420 114.2785 249° West 275 316 12,500 -1,260 Descending FlightAware ADS-B
10:15PM 22.2215 114.2235 248° West 271 312 11,300 -1,320 Descending FlightAware ADS-B
10:18PM 22.2832 114.0059 287° West  Level Estimated
10:19PM 22.3089 113.9146 287° West  Level Estimated
10:20PM 22.3089 113.9146 North  Level Estimated
10:21PM 22.3089 113.9146 North  Level Estimated
10:22PM 22.3089 113.9146 North  Level Estimated
10:23PM 22.3089 113.9146 North  Level Estimated
10:24PM 22.3089 113.9146 North  Level Estimated
10:25PM 22.3089 113.9146 North  Level Estimated
10:26PM 22.3089 113.9146 North  Level Estimated